Time;durP1;ratioP1;P1;durP2;ratioP2;P2;SDS_P1;SDS_P2;PMS_P1;PMS_P2;Temp;Humidity;BMP_temperature;BMP_pressure;BME280_temperature;BME280_humidity;BME280_pressure;Samples;Min_cycle;Max_cycle;Signal;HPM_P1;HPM_P2
2021/12/10 00:01:33;;;;;;;0.40;0.20;;;1.20;99.90;;;;;;5071251;28;20428;-74
2021/12/10 00:04:02;;;;;;;0.40;0.25;;;1.20;99.90;;;;;;5104871;27;20458;-74
2021/12/10 00:06:36;;;;;;;0.40;0.28;;;1.20;99.90;;;;;;5101342;27;20436;-73
2021/12/10 00:09:14;;;;;;;0.40;0.20;;;1.20;99.90;;;;;;5083320;28;21182;-74
2021/12/10 00:11:47;;;;;;;0.50;0.50;;;1.10;99.90;;;;;;5100974;28;20903;-73
2021/12/10 00:14:13;;;;;;;0.40;0.20;;;1.00;99.90;;;;;;5102747;27;20505;-74
2021/12/10 00:16:41;;;;;;;0.40;0.20;;;1.00;99.90;;;;;;5101974;27;20594;-73
2021/12/10 00:21:42;;;;;;;0.40;0.20;;;0.90;99.90;;;;;;5100485;27;20404;-74
2021/12/10 00:24:09;;;;;;;0.40;0.30;;;0.90;99.90;;;;;;5100994;28;20446;-74
2021/12/10 00:26:35;;;;;;;0.40;0.20;;;0.90;99.90;;;;;;5101045;28;20425;-74
2021/12/10 00:29:03;;;;;;;0.40;0.20;;;0.90;99.90;;;;;;5101551;27;20378;-74
2021/12/10 00:31:47;;;;;;;0.40;0.20;;;0.90;99.90;;;;;;5100128;27;20865;-74
2021/12/10 00:34:21;;;;;;;0.40;0.20;;;1.00;99.90;;;;;;5098606;27;20462;-74
2021/12/10 00:36:49;;;;;;;0.52;0.52;;;0.80;99.90;;;;;;5100185;27;20460;-73
2021/12/10 00:39:24;;;;;;;0.40;0.30;;;1.00;99.90;;;;;;5100489;27;20390;-74
2021/12/10 00:41:53;;;;;;;0.40;0.40;;;1.00;99.90;;;;;;5100962;27;20874;-74
2021/12/10 00:44:19;;;;;;;0.40;0.20;;;0.90;99.90;;;;;;5102748;27;20385;-73
2021/12/10 00:46:45;;;;;;;0.40;0.20;;;0.80;99.90;;;;;;5101260;27;20460;-74
2021/12/10 00:49:12;;;;;;;0.40;0.30;;;0.70;99.90;;;;;;5103227;27;20381;-73
2021/12/10 00:51:39;;;;;;;0.40;0.20;;;0.70;99.90;;;;;;5099544;27;20374;-73
2021/12/10 00:54:07;;;;;;;0.40;0.20;;;0.80;99.90;;;;;;5086749;27;20382;-73
2021/12/10 00:56:33;;;;;;;0.40;0.20;;;0.70;99.90;;;;;;5080222;28;20406;-73
2021/12/10 00:59:00;;;;;;;0.40;0.20;;;0.90;99.90;;;;;;5103346;28;20407;-74
2021/12/10 01:01:29;;;;;;;0.40;0.30;;;0.80;99.90;;;;;;5100872;28;20376;-73
2021/12/10 01:04:05;;;;;;;0.40;0.20;;;0.70;99.90;;;;;;5104282;27;20456;-74
2021/12/10 01:06:31;;;;;;;0.40;0.20;;;0.70;99.90;;;;;;5084850;28;20461;-74
2021/12/10 01:09:00;;;;;;;0.40;0.20;;;0.70;99.90;;;;;;5100491;28;20370;-74
2021/12/10 01:11:28;;;;;;;0.40;0.20;;;0.80;99.90;;;;;;5097590;28;20873;-73
2021/12/10 01:14:07;;;;;;;0.40;0.30;;;0.70;99.90;;;;;;5101470;27;20400;-74
2021/12/10 01:27:32;;;;;;;0.40;0.20;;;0.60;99.90;;;;;;5101656;28;20615;-73
2021/12/10 01:30:17;;;;;;;0.40;0.30;;;0.60;99.90;;;;;;5100606;28;20423;-74
2021/12/10 01:32:53;;;;;;;0.40;0.20;;;0.70;99.90;;;;;;5082447;28;20434;-73
2021/12/10 01:35:23;;;;;;;0.40;0.20;;;0.80;99.90;;;;;;5102300;28;20377;-73
2021/12/10 01:37:54;;;;;;;0.40;0.20;;;0.70;99.90;;;;;;5103736;28;20389;-72
2021/12/10 01:40:22;;;;;;;0.40;0.20;;;0.70;99.90;;;;;;5078708;28;20513;-72
2021/12/10 01:42:52;;;;;;;0.40;0.30;;;0.60;99.90;;;;;;5098851;28;20382;-72
2021/12/10 01:45:22;;;;;;;0.40;0.30;;;0.70;99.90;;;;;;5101674;28;20527;-72
2021/12/10 01:47:58;;;;;;;0.40;0.30;;;0.70;99.90;;;;;;5105811;27;20455;-73
2021/12/10 01:50:26;;;;;;;0.40;0.20;;;0.80;99.90;;;;;;5105860;27;20427;-73
2021/12/10 01:53:08;;;;;;;0.40;0.30;;;0.70;99.90;;;;;;5104215;27;20391;-73
2021/12/10 01:55:37;;;;;;;0.40;0.20;;;0.70;99.90;;;;;;5086993;28;20511;-73
2021/12/10 01:58:07;;;;;;;0.40;0.20;;;0.80;99.90;;;;;;5110777;28;20426;-73
2021/12/10 02:00:37;;;;;;;0.40;0.20;;;0.80;99.90;;;;;;5112452;28;20417;-72
2021/12/10 02:03:04;;;;;;;0.40;0.20;;;0.60;99.90;;;;;;5094156;28;20821;-73
2021/12/10 02:05:32;;;;;;;0.40;0.20;;;0.60;99.90;;;;;;5089613;28;20457;-73
2021/12/10 02:07:58;;;;;;;0.40;0.20;;;0.60;99.90;;;;;;5113137;28;20889;-72
2021/12/10 02:10:29;;;;;;;0.40;0.30;;;0.70;99.90;;;;;;5114036;28;20737;-72
2021/12/10 02:12:56;;;;;;;0.40;0.20;;;0.70;99.90;;;;;;5094746;28;20376;-72
2021/12/10 02:15:26;;;;;;;0.40;0.20;;;0.70;99.90;;;;;;5113001;28;20418;-73
2021/12/10 02:17:53;;;;;;;0.40;0.20;;;0.50;99.90;;;;;;5095476;28;20387;-72
2021/12/10 02:20:27;;;;;;;0.40;0.20;;;0.70;99.90;;;;;;5094413;28;20781;-73
2021/12/10 02:22:53;;;;;;;0.40;0.20;;;0.80;99.90;;;;;;5089256;28;20877;-73
2021/12/10 02:25:26;;;;;;;0.40;0.30;;;0.80;99.90;;;;;;5094174;28;20416;-73
2021/12/10 02:27:53;;;;;;;0.40;0.30;;;0.90;99.90;;;;;;5112227;28;20521;-73
2021/12/10 02:30:21;;;;;;;0.40;0.20;;;0.80;99.90;;;;;;5094401;28;20376;-72
2021/12/10 02:32:46;;;;;;;0.40;0.20;;;0.80;99.90;;;;;;5111672;28;20387;-73
2021/12/10 02:35:14;;;;;;;0.40;0.20;;;0.80;99.90;;;;;;5112897;28;20842;-72
2021/12/10 02:37:42;;;;;;;0.40;0.20;;;0.80;99.90;;;;;;5112579;28;20388;-73
2021/12/10 02:40:10;;;;;;;0.40;0.20;;;0.90;99.90;;;;;;5112206;28;20376;-72
2021/12/10 02:42:37;;;;;;;0.40;0.20;;;0.90;99.90;;;;;;5112302;28;20373;-72
2021/12/10 02:45:05;;;;;;;0.40;0.20;;;0.90;99.90;;;;;;5094091;28;20754;-72
2021/12/10 02:47:31;;;;;;;0.40;0.20;;;0.90;99.90;;;;;;5112395;28;20414;-73
2021/12/10 02:49:57;;;;;;;0.40;0.30;;;1.00;99.90;;;;;;5111963;28;20377;-72
2021/12/10 02:52:25;;;;;;;0.40;0.20;;;0.80;99.90;;;;;;5112990;28;20704;-72
2021/12/10 02:54:51;;;;;;;0.40;0.20;;;0.80;99.90;;;;;;5094826;28;20800;-72
2021/12/10 02:57:18;;;;;;;0.40;0.20;;;0.70;99.90;;;;;;5111270;28;20464;-72
2021/12/10 02:59:44;;;;;;;0.40;0.30;;;0.70;99.90;;;;;;5113216;28;20376;-73
2021/12/10 03:02:14;;;;;;;0.50;0.40;;;0.70;99.90;;;;;;5112269;28;20485;-72
2021/12/10 03:04:41;;;;;;;0.40;0.20;;;0.60;99.90;;;;;;5095119;28;20388;-72
2021/12/10 03:07:13;;;;;;;0.40;0.20;;;0.60;99.90;;;;;;5112600;28;20769;-73
2021/12/10 03:09:44;;;;;;;0.40;0.30;;;0.80;99.90;;;;;;5112677;28;20416;-72
2021/12/10 03:12:12;;;;;;;0.40;0.20;;;0.70;99.90;;;;;;5112489;28;20726;-73
2021/12/10 03:14:40;;;;;;;0.40;0.25;;;0.80;99.90;;;;;;5113016;28;20418;-72
2021/12/10 03:17:10;;;;;;;0.40;0.30;;;0.70;99.90;;;;;;5094657;28;20424;-72
2021/12/10 03:19:37;;;;;;;0.40;0.20;;;0.70;99.90;;;;;;5111980;28;20377;-72
2021/12/10 03:22:05;;;;;;;0.40;0.30;;;0.80;99.90;;;;;;5112932;28;20387;-72
2021/12/10 03:24:31;;;;;;;0.40;0.30;;;0.70;99.90;;;;;;5111529;28;20457;-72
2021/12/10 03:27:00;;;;;;;0.40;0.30;;;0.80;99.90;;;;;;5112419;28;20428;-72
2021/12/10 03:29:27;;;;;;;0.40;0.30;;;0.80;99.90;;;;;;5111749;28;20393;-72
2021/12/10 03:31:55;;;;;;;0.40;0.20;;;0.90;99.90;;;;;;5112609;28;20822;-72
2021/12/10 03:34:21;;;;;;;0.40;0.30;;;0.80;99.90;;;;;;5094563;28;20404;-72
2021/12/10 03:36:50;;;;;;;0.40;0.20;;;0.90;99.90;;;;;;5090780;28;20386;-72
2021/12/10 03:39:20;;;;;;;0.40;0.20;;;1.00;99.90;;;;;;5092202;28;20385;-72
2021/12/10 03:41:46;;;;;;;0.40;0.30;;;0.90;99.90;;;;;;5091121;28;20381;-72
2021/12/10 03:44:12;;;;;;;0.40;0.20;;;0.90;99.90;;;;;;5091841;28;20378;-72
2021/12/10 03:46:39;;;;;;;0.40;0.20;;;0.90;99.90;;;;;;5091438;28;20406;-72
2021/12/10 03:49:06;;;;;;;0.90;0.80;;;1.10;99.90;;;;;;5092114;28;20378;-72
2021/12/10 03:51:34;;;;;;;0.40;0.20;;;0.90;99.90;;;;;;5092301;28;20386;-72
2021/12/10 03:54:00;;;;;;;0.40;0.20;;;0.90;99.90;;;;;;5091352;28;20374;-72
2021/12/10 03:56:30;;;;;;;0.40;0.20;;;1.00;99.90;;;;;;5092155;28;20396;-72
2021/12/10 03:59:00;;;;;;;0.40;0.20;;;0.90;99.90;;;;;;5091268;28;20459;-72
2021/12/10 04:01:29;;;;;;;0.40;0.20;;;0.90;99.90;;;;;;5073730;28;20894;-72
2021/12/10 04:03:58;;;;;;;0.40;0.20;;;0.80;99.90;;;;;;5091416;28;20397;-73
2021/12/10 04:06:25;;;;;;;0.40;0.30;;;0.90;99.90;;;;;;5091797;28;20374;-72
2021/12/10 04:08:51;;;;;;;0.40;0.20;;;1.00;99.90;;;;;;5073048;28;20424;-74
2021/12/10 04:11:18;;;;;;;0.40;0.20;;;1.10;99.90;;;;;;5091634;28;20370;-72
2021/12/10 04:13:46;;;;;;;0.40;0.20;;;1.10;99.90;;;;;;5091708;28;20388;-73
2021/12/10 04:16:12;;;;;;;1.20;0.80;;;1.20;99.90;;;;;;5073003;28;20421;-73
2021/12/10 04:18:38;;;;;;;0.40;0.30;;;1.20;99.90;;;;;;5091061;28;20418;-72
2021/12/10 04:21:06;;;;;;;0.40;0.20;;;1.30;99.90;;;;;;5091200;28;20390;-72
2021/12/10 04:23:32;;;;;;;0.40;0.30;;;1.20;99.90;;;;;;5091315;28;20750;-72
2021/12/10 04:25:58;;;;;;;0.40;0.20;;;1.20;99.90;;;;;;5091312;28;20402;-72
2021/12/10 04:28:24;;;;;;;0.40;0.20;;;1.20;99.90;;;;;;5090055;28;20417;-72
2021/12/10 04:30:51;;;;;;;0.40;0.20;;;1.10;99.90;;;;;;5072876;28;20386;-72
2021/12/10 04:33:22;;;;;;;0.40;0.20;;;1.10;99.90;;;;;;5091241;28;20382;-72
2021/12/10 04:35:50;;;;;;;0.40;0.20;;;1.20;99.90;;;;;;5091947;28;20366;-72
2021/12/10 04:38:17;;;;;;;0.40;0.30;;;1.30;99.90;;;;;;5091312;28;20455;-74
2021/12/10 04:40:47;;;;;;;0.40;0.30;;;1.40;99.90;;;;;;5073478;28;20528;-72
2021/12/10 04:43:14;;;;;;;0.40;0.20;;;1.50;99.90;;;;;;5091874;28;20468;-72
2021/12/10 04:45:40;;;;;;;0.40;0.20;;;1.40;99.90;;;;;;5072518;28;20390;-72
2021/12/10 04:48:05;;;;;;;0.40;0.20;;;1.40;99.90;;;;;;5091278;28;20416;-72
2021/12/10 04:50:32;;;;;;;0.40;0.30;;;1.40;99.90;;;;;;5090577;28;20751;-73
2021/12/10 04:52:58;;;;;;;0.40;0.20;;;1.30;99.90;;;;;;5091937;28;20386;-72
2021/12/10 04:55:24;;;;;;;0.40;0.28;;;1.40;99.90;;;;;;5091250;28;20394;-72
2021/12/10 04:57:50;;;;;;;0.40;0.20;;;1.40;99.90;;;;;;5090961;28;20386;-72
2021/12/10 05:00:29;;;;;;;0.40;0.20;;;1.30;99.90;;;;;;5091541;28;20393;-72
2021/12/10 05:02:56;;;;;;;0.40;0.20;;;1.30;99.90;;;;;;5090959;28;20423;-72
2021/12/10 05:05:22;;;;;;;0.40;0.20;;;1.20;99.90;;;;;;5090624;28;20911;-72
2021/12/10 05:07:49;;;;;;;0.40;0.20;;;1.40;99.90;;;;;;5090345;28;20493;-72
2021/12/10 05:10:17;;;;;;;0.40;0.30;;;1.40;99.90;;;;;;5091528;28;20789;-72
2021/12/10 05:12:43;;;;;;;0.40;0.30;;;1.50;99.90;;;;;;5091271;28;20859;-73
2021/12/10 05:15:14;;;;;;;0.40;0.20;;;1.50;99.90;;;;;;5090179;28;20700;-73
2021/12/10 05:17:40;;;;;;;0.40;0.20;;;1.40;99.90;;;;;;5091039;28;20473;-73
2021/12/10 05:20:16;;;;;;;0.40;0.20;;;1.40;99.90;;;;;;5089972;28;20418;-72
2021/12/10 05:22:46;;;;;;;0.40;0.20;;;1.60;99.90;;;;;;5091444;28;20803;-72
2021/12/10 05:25:12;;;;;;;0.40;0.20;;;1.60;99.90;;;;;;5090216;28;20478;-72
2021/12/10 05:27:39;;;;;;;0.40;0.20;;;1.70;99.90;;;;;;5073058;28;20410;-73
2021/12/10 05:30:09;;;;;;;0.40;0.30;;;1.70;99.90;;;;;;5091169;28;20750;-75
2021/12/10 05:32:35;;;;;;;0.40;0.20;;;1.70;99.90;;;;;;5075895;28;20393;-73
2021/12/10 05:35:01;;;;;;;0.40;0.30;;;1.90;99.90;;;;;;5111632;28;20380;-73
2021/12/10 05:37:27;;;;;;;0.40;0.20;;;1.90;99.90;;;;;;5092760;28;20384;-73
2021/12/10 05:39:53;;;;;;;0.40;0.28;;;2.00;99.90;;;;;;5111592;28;20380;-73
2021/12/10 05:42:19;;;;;;;0.40;0.20;;;2.00;99.90;;;;;;5111030;28;20738;-73
2021/12/10 05:44:44;;;;;;;0.70;0.70;;;2.00;99.90;;;;;;5111561;28;20467;-73
2021/12/10 05:47:10;;;;;;;0.40;0.20;;;2.10;99.90;;;;;;5111729;28;20406;-73
2021/12/10 05:49:36;;;;;;;0.60;0.50;;;2.10;99.90;;;;;;5110781;28;20408;-73
2021/12/10 05:52:04;;;;;;;0.40;0.20;;;2.20;99.90;;;;;;5111173;28;20404;-73
2021/12/10 05:54:30;;;;;;;0.40;0.20;;;2.20;99.90;;;;;;5092035;28;20801;-74
2021/12/10 05:56:56;;;;;;;0.40;0.20;;;2.20;99.90;;;;;;5111211;28;20410;-73
2021/12/10 05:59:21;;;;;;;0.40;0.20;;;2.20;99.90;;;;;;5110708;28;20377;-73
2021/12/10 06:01:47;;;;;;;0.40;0.20;;;2.30;99.90;;;;;;5110159;28;20427;-73
2021/12/10 06:04:13;;;;;;;0.40;0.20;;;2.30;99.90;;;;;;5111059;28;20384;-73
2021/12/10 06:06:39;;;;;;;0.40;0.20;;;2.30;99.90;;;;;;5110096;28;20494;-74
2021/12/10 06:09:08;;;;;;;0.40;0.30;;;2.40;99.90;;;;;;5111005;28;20393;-73
2021/12/10 06:11:35;;;;;;;0.40;0.20;;;2.40;99.90;;;;;;5111026;28;20369;-72
2021/12/10 06:14:07;;;;;;;0.40;0.30;;;2.40;99.90;;;;;;5110710;28;20797;-72
2021/12/10 06:16:37;;;;;;;0.40;0.30;;;2.50;99.90;;;;;;5092018;28;20392;-73
2021/12/10 06:19:05;;;;;;;0.40;0.30;;;2.50;99.90;;;;;;5106910;28;20426;-73
2021/12/10 06:21:33;;;;;;;0.40;0.20;;;2.50;99.90;;;;;;5111167;28;20379;-73
2021/12/10 06:24:00;;;;;;;0.40;0.30;;;2.50;99.90;;;;;;5091281;28;20475;-73
2021/12/10 06:26:26;;;;;;;0.40;0.20;;;2.60;99.90;;;;;;5110565;28;20498;-72
2021/12/10 06:28:51;;;;;;;0.40;0.20;;;2.70;99.90;;;;;;5110466;28;20883;-74
2021/12/10 06:31:19;;;;;;;0.40;0.20;;;2.70;99.90;;;;;;5112185;28;20731;-73
2021/12/10 06:33:45;;;;;;;0.40;0.20;;;2.80;99.90;;;;;;5101998;28;20386;-72
2021/12/10 06:36:12;;;;;;;0.40;0.20;;;2.90;99.90;;;;;;5092982;28;20420;-73
2021/12/10 06:38:38;;;;;;;0.40;0.30;;;2.80;99.90;;;;;;5076041;28;20808;-73
2021/12/10 06:41:05;;;;;;;0.40;0.30;;;2.90;99.90;;;;;;5093107;28;20382;-74
2021/12/10 06:43:31;;;;;;;0.40;0.30;;;2.90;99.90;;;;;;5075945;28;20777;-73
2021/12/10 06:45:57;;;;;;;0.40;0.30;;;3.00;99.90;;;;;;5094121;28;20417;-72
2021/12/10 06:48:25;;;;;;;0.40;0.30;;;3.10;99.90;;;;;;5093481;28;20430;-73
2021/12/10 06:50:58;;;;;;;0.40;0.20;;;3.10;99.90;;;;;;5075803;28;20794;-73
2021/12/10 06:53:27;;;;;;;0.40;0.30;;;3.10;99.90;;;;;;5075231;28;20461;-72
2021/12/10 06:55:53;;;;;;;0.40;0.20;;;3.10;99.80;;;;;;5075866;28;20392;-72
2021/12/10 06:58:22;;;;;;;0.40;0.20;;;3.20;99.90;;;;;;5093445;28;20477;-73
2021/12/10 07:00:50;;;;;;;0.40;0.30;;;3.30;99.90;;;;;;5093904;28;20386;-73
2021/12/10 07:03:19;;;;;;;0.40;0.28;;;3.30;99.20;;;;;;5093948;28;20759;-72
2021/12/10 07:05:45;;;;;;;0.40;0.30;;;3.30;99.50;;;;;;5093615;28;20755;-73
2021/12/10 07:08:11;;;;;;;0.40;0.20;;;3.30;99.90;;;;;;5093636;28;20412;-73
2021/12/10 07:10:37;;;;;;;0.40;0.20;;;3.40;99.90;;;;;;5093258;28;20734;-73
2021/12/10 07:13:06;;;;;;;0.40;0.20;;;3.40;99.80;;;;;;5075608;28;20420;-72
2021/12/10 07:15:35;;;;;;;0.40;0.30;;;3.60;97.30;;;;;;5093087;28;20431;-73
2021/12/10 07:18:01;;;;;;;0.40;0.20;;;3.70;97.20;;;;;;5093711;28;20394;-72
2021/12/10 07:20:27;;;;;;;0.40;0.20;;;3.70;98.40;;;;;;5075354;28;20386;-73
2021/12/10 07:22:53;;;;;;;0.40;0.30;;;3.60;97.60;;;;;;5093005;28;20500;-73
2021/12/10 07:25:20;;;;;;;0.40;0.20;;;3.40;99.90;;;;;;5093540;28;20445;-73
2021/12/10 07:27:47;;;;;;;0.40;0.20;;;3.30;99.90;;;;;;5092721;28;20417;-73
2021/12/10 07:30:15;;;;;;;0.40;0.30;;;2.90;99.90;;;;;;5075337;28;20760;-73
2021/12/10 07:32:41;;;;;;;0.40;0.30;;;2.70;99.90;;;;;;5096205;28;20376;-73
2021/12/10 07:35:08;;;;;;;0.40;0.20;;;2.40;99.90;;;;;;5113843;28;20830;-73
2021/12/10 07:37:36;;;;;;;0.40;0.30;;;2.20;99.90;;;;;;5113668;28;20718;-72
2021/12/10 07:40:05;;;;;;;0.40;0.30;;;2.00;99.90;;;;;;5113051;28;20373;-72
2021/12/10 07:42:31;;;;;;;0.40;0.30;;;1.60;99.90;;;;;;5112398;28;20408;-73
2021/12/10 07:44:57;;;;;;;0.40;0.30;;;1.60;99.90;;;;;;5112808;28;20727;-73
2021/12/10 07:47:23;;;;;;;0.40;0.30;;;1.60;99.90;;;;;;5113411;28;20729;-73
2021/12/10 07:49:49;;;;;;;0.40;0.20;;;1.50;99.90;;;;;;5113441;28;20437;-72
2021/12/10 07:52:21;;;;;;;0.40;0.20;;;1.40;99.90;;;;;;5112765;28;20844;-72
2021/12/10 07:54:48;;;;;;;0.40;0.20;;;1.60;99.90;;;;;;5113194;28;20390;-72
2021/12/10 07:57:18;;;;;;;0.40;0.20;;;1.60;99.90;;;;;;5094644;28;20392;-72
2021/12/10 07:59:45;;;;;;;0.40;0.30;;;1.70;99.90;;;;;;5113085;28;20734;-72
2021/12/10 08:02:11;;;;;;;0.60;0.60;;;1.70;99.90;;;;;;5112202;28;20385;-73
2021/12/10 08:04:37;;;;;;;0.40;0.20;;;1.90;99.90;;;;;;5113291;28;20529;-72
2021/12/10 08:07:04;;;;;;;0.40;0.30;;;2.00;99.90;;;;;;5112437;28;20502;-74
2021/12/10 08:09:30;;;;;;;0.40;0.20;;;2.00;99.90;;;;;;5094840;28;20391;-72
2021/12/10 08:11:56;;;;;;;0.40;0.20;;;2.00;99.90;;;;;;5094636;28;20730;-72
2021/12/10 08:14:22;;;;;;;0.40;0.20;;;2.10;99.90;;;;;;5112398;28;20457;-73
2021/12/10 08:16:48;;;;;;;0.40;0.30;;;2.00;99.90;;;;;;5094560;28;20384;-72
2021/12/10 08:19:14;;;;;;;0.40;0.20;;;2.00;99.90;;;;;;5112365;28;20466;-73
2021/12/10 08:21:42;;;;;;;0.40;0.20;;;2.20;99.90;;;;;;5112773;28;20434;-72
2021/12/10 08:24:08;;;;;;;0.40;0.20;;;2.20;99.90;;;;;;5112751;28;20467;-72
2021/12/10 08:26:35;;;;;;;0.40;0.30;;;2.20;99.90;;;;;;5111505;28;20400;-73
2021/12/10 08:29:03;;;;;;;1.00;0.60;;;2.10;99.90;;;;;;5112718;28;20387;-73
2021/12/10 08:31:29;;;;;;;0.40;0.20;;;2.20;99.90;;;;;;5093602;28;20732;-72
2021/12/10 08:33:55;;;;;;;0.40;0.20;;;2.30;99.90;;;;;;5098262;28;20407;-72
2021/12/10 08:36:22;;;;;;;0.40;0.20;;;2.20;99.90;;;;;;5091702;28;20405;-74
2021/12/10 08:38:50;;;;;;;0.40;0.20;;;2.30;99.90;;;;;;5092069;28;20370;-72
2021/12/10 08:41:20;;;;;;;0.40;0.20;;;2.20;99.90;;;;;;5092129;28;20733;-73
2021/12/10 08:43:46;;;;;;;0.40;0.20;;;2.40;99.90;;;;;;5091448;28;20382;-72
2021/12/10 08:46:14;;;;;;;0.40;0.40;;;2.50;99.90;;;;;;5093703;27;20403;-73
2021/12/10 08:48:41;;;;;;;0.40;0.30;;;2.40;99.90;;;;;;5113560;27;20428;-74
2021/12/10 08:51:19;;;;;;;0.40;0.20;;;2.30;99.90;;;;;;5106520;27;20437;-74
2021/12/10 08:53:45;;;;;;;0.40;0.20;;;2.40;99.90;;;;;;5098474;28;20396;-74
2021/12/10 08:56:11;;;;;;;0.40;0.28;;;2.50;99.90;;;;;;5079736;28;20797;-74
2021/12/10 08:58:37;;;;;;;0.40;0.20;;;2.50;99.90;;;;;;5097356;28;20437;-73
2021/12/10 09:01:14;;;;;;;0.40;0.30;;;2.50;99.90;;;;;;5096483;28;20524;-74
2021/12/10 09:03:43;;;;;;;0.40;0.30;;;2.50;99.90;;;;;;5096832;27;20387;-74
2021/12/10 09:06:10;;;;;;;0.40;0.20;;;2.70;99.90;;;;;;5098546;28;20457;-72
2021/12/10 09:08:36;;;;;;;0.40;0.20;;;2.70;99.90;;;;;;5079401;28;20933;-72
2021/12/10 09:11:03;;;;;;;0.40;0.30;;;2.70;99.90;;;;;;5095508;28;20400;-74
2021/12/10 09:13:29;;;;;;;0.40;0.20;;;2.70;99.90;;;;;;5097830;28;20392;-73
2021/12/10 09:16:01;;;;;;;0.40;0.20;;;2.70;99.90;;;;;;5097835;28;20385;-73
2021/12/10 09:18:27;;;;;;;0.40;0.20;;;2.70;99.90;;;;;;5097820;28;20372;-73
2021/12/10 09:20:55;;;;;;;0.40;0.20;;;2.80;99.90;;;;;;5095422;28;20382;-73
2021/12/10 09:23:24;;;;;;;0.40;0.20;;;2.70;99.90;;;;;;5097436;28;20446;-74
2021/12/10 09:25:54;;;;;;;0.40;0.20;;;2.70;99.90;;;;;;5096948;28;20408;-73
2021/12/10 09:28:23;;;;;;;0.40;0.20;;;2.80;99.90;;;;;;5098088;28;20432;-73
2021/12/10 09:30:53;;;;;;;0.40;0.20;;;2.80;99.90;;;;;;5096278;28;20392;-73
2021/12/10 09:33:19;;;;;;;0.40;0.20;;;2.70;99.90;;;;;;5097678;28;20392;-74
2021/12/10 09:35:46;;;;;;;0.40;0.20;;;2.70;99.90;;;;;;5097687;28;20388;-73
2021/12/10 09:38:12;;;;;;;0.40;0.30;;;2.70;99.90;;;;;;5097138;28;20804;-74
2021/12/10 09:40:41;;;;;;;0.40;0.20;;;2.70;99.90;;;;;;5095391;28;20372;-74
2021/12/10 09:43:09;;;;;;;0.40;0.20;;;2.60;99.90;;;;;;5096467;28;20373;-74
2021/12/10 09:45:38;;;;;;;0.40;0.20;;;2.70;99.90;;;;;;5097375;28;20470;-74
2021/12/10 09:48:07;;;;;;;0.40;0.30;;;2.90;99.90;;;;;;5096998;28;20415;-74
2021/12/10 09:50:38;;;;;;;0.40;0.20;;;2.90;99.90;;;;;;5076641;28;20950;-73
2021/12/10 09:53:05;;;;;;;0.40;0.20;;;2.90;99.90;;;;;;5078374;28;20742;-74
2021/12/10 09:55:32;;;;;;;0.40;0.20;;;2.90;99.90;;;;;;5097613;28;20414;-74
2021/12/10 09:57:59;;;;;;;0.40;0.30;;;2.80;99.90;;;;;;5097045;28;20554;-74
2021/12/10 10:00:38;;;;;;;0.40;0.20;;;2.80;99.90;;;;;;5093252;28;20857;-74
2021/12/10 10:03:07;;;;;;;0.40;0.30;;;2.80;99.90;;;;;;5096361;28;21467;-73
2021/12/10 10:05:33;;;;;;;0.40;0.20;;;2.90;99.90;;;;;;5097617;28;20392;-74
2021/12/10 10:08:05;;;;;;;0.40;0.20;;;2.90;99.90;;;;;;5100413;27;20412;-75
2021/12/10 10:10:32;;;;;;;0.40;0.20;;;2.90;99.90;;;;;;5108721;27;20414;-73
2021/12/10 10:12:59;;;;;;;0.40;0.20;;;2.90;99.90;;;;;;5105449;28;20461;-73
2021/12/10 10:15:33;;;;;;;0.40;0.20;;;3.00;99.90;;;;;;5107790;28;20381;-72
2021/12/10 10:18:02;;;;;;;0.40;0.20;;;3.00;99.90;;;;;;5096968;28;20870;-73
2021/12/10 10:20:32;;;;;;;0.40;0.20;;;3.00;99.90;;;;;;5114613;28;20393;-73
2021/12/10 10:22:58;;;;;;;0.40;0.30;;;3.00;99.90;;;;;;5114796;28;20430;-73
2021/12/10 10:25:26;;;;;;;0.40;0.20;;;3.00;99.90;;;;;;5114679;28;20412;-73
2021/12/10 10:27:53;;;;;;;0.40;0.20;;;3.00;99.90;;;;;;5114708;28;20457;-73
2021/12/10 10:30:27;;;;;;;0.40;0.20;;;2.90;99.90;;;;;;5114886;28;20384;-73
2021/12/10 10:32:57;;;;;;;0.40;0.20;;;2.90;99.90;;;;;;5114767;28;20387;-72
2021/12/10 10:35:27;;;;;;;0.40;0.20;;;2.80;99.90;;;;;;5114917;28;20381;-73
2021/12/10 10:37:55;;;;;;;0.40;0.20;;;2.80;99.90;;;;;;5114798;28;20372;-73
2021/12/10 10:40:25;;;;;;;0.40;0.30;;;2.90;99.90;;;;;;5114839;28;20384;-73
2021/12/10 10:42:52;;;;;;;0.40;0.20;;;2.80;99.90;;;;;;5113960;28;20372;-72
2021/12/10 10:45:23;;;;;;;0.50;0.50;;;2.90;99.90;;;;;;5114660;28;20730;-72
2021/12/10 10:47:51;;;;;;;0.40;0.20;;;2.80;99.90;;;;;;5113844;28;20403;-71
2021/12/10 10:50:25;;;;;;;0.40;0.20;;;2.80;99.90;;;;;;5096353;28;20392;-72
2021/12/10 10:52:54;;;;;;;0.40;0.20;;;2.80;99.90;;;;;;5113939;28;20386;-72
2021/12/10 10:55:29;;;;;;;0.40;0.20;;;2.80;99.90;;;;;;5114405;28;20391;-72
2021/12/10 10:58:05;;;;;;;0.40;0.20;;;2.90;99.90;;;;;;5113761;28;20426;-72
2021/12/10 11:03:47;;;;;;;0.40;0.20;;;3.60;99.90;;;;;;5075745;28;20867;-72
2021/12/10 11:06:17;;;;;;;0.40;0.20;;;3.80;99.90;;;;;;5093616;28;20928;-72
2021/12/10 11:08:51;;;;;;;0.40;0.20;;;4.00;99.90;;;;;;5092919;28;20494;-74
2021/12/10 11:11:19;;;;;;;0.40;0.20;;;4.00;99.90;;;;;;5094061;28;20377;-72
2021/12/10 11:13:49;;;;;;;0.40;0.20;;;4.00;99.90;;;;;;5093311;28;20424;-72
2021/12/10 11:16:19;;;;;;;0.40;0.20;;;4.10;99.90;;;;;;5093677;28;20379;-73
2021/12/10 11:18:53;;;;;;;0.40;0.20;;;4.10;99.90;;;;;;5092940;28;20775;-71
2021/12/10 11:21:40;;;;;;;0.40;0.20;;;4.10;99.90;;;;;;5093501;28;20948;-72
2021/12/10 11:24:19;;;;;;;0.40;0.20;;;4.10;99.90;;;;;;5092751;28;20390;-72
2021/12/10 11:26:53;;;;;;;0.40;0.20;;;4.10;99.90;;;;;;5093509;28;20430;-72
2021/12/10 11:29:40;;;;;;;0.40;0.20;;;4.10;99.90;;;;;;5113541;28;20376;-72
2021/12/10 11:32:28;;;;;;;0.40;0.20;;;4.00;99.90;;;;;;5113151;28;20423;-73
2021/12/10 11:35:03;;;;;;;0.40;0.20;;;3.90;99.90;;;;;;5111666;28;20407;-72
2021/12/10 11:37:50;;;;;;;0.40;0.30;;;3.90;99.90;;;;;;5113679;28;20391;-73
2021/12/10 11:40:38;;;;;;;0.40;0.20;;;3.80;99.90;;;;;;5112759;28;20387;-73
2021/12/10 11:44:06;;;;;;;0.40;0.20;;;3.80;99.90;;;;;;5113028;28;20467;-73
2021/12/10 11:49:27;;;;;;;0.40;0.20;;;4.00;99.90;;;;;;5010077;28;20443;-73
2021/12/10 11:51:56;;;;;;;0.40;0.20;;;4.10;99.90;;;;;;5095486;28;20893;-72
2021/12/10 11:54:51;;;;;;;0.40;0.20;;;4.10;99.90;;;;;;5112553;28;20490;-73
2021/12/10 11:57:16;;;;;;;0.40;0.20;;;4.20;99.90;;;;;;5112792;28;20419;-73
2021/12/10 11:59:50;;;;;;;0.40;0.20;;;4.20;99.90;;;;;;5113129;28;20404;-73
2021/12/10 12:02:16;;;;;;;0.40;0.20;;;4.20;99.90;;;;;;5112613;28;20395;-73
2021/12/10 12:04:51;;;;;;;0.40;0.20;;;4.20;99.90;;;;;;5113152;28;20380;-73
2021/12/10 12:07:42;;;;;;;0.40;0.20;;;4.20;99.90;;;;;;5094249;28;20412;-73
2021/12/10 12:10:21;;;;;;;0.40;0.20;;;4.20;99.90;;;;;;5112907;28;20377;-72
2021/12/10 12:15:50;;;;;;;0.40;0.20;;;4.30;99.90;;;;;;5104841;28;20382;-72
2021/12/10 12:18:26;;;;;;;0.40;0.20;;;4.30;99.90;;;;;;5094136;28;20385;-72
2021/12/10 12:27:06;;;;;;;0.40;0.20;;;4.30;99.90;;;;;;5112231;28;20441;-72
2021/12/10 12:29:37;;;;;;;0.40;0.20;;;4.40;99.90;;;;;;5093578;28;20908;-72
2021/12/10 12:32:14;;;;;;;0.40;0.20;;;4.40;99.90;;;;;;5112525;28;20421;-69
2021/12/10 12:34:40;;;;;;;0.40;0.20;;;4.40;99.90;;;;;;5105480;28;20430;-71
2021/12/10 12:37:10;;;;;;;0.40;0.30;;;4.50;99.90;;;;;;5112223;28;20416;-71
2021/12/10 12:39:45;;;;;;;0.40;0.30;;;4.50;99.90;;;;;;5111980;28;20384;-72
2021/12/10 12:42:20;;;;;;;0.40;0.20;;;4.50;99.90;;;;;;5112371;28;20526;-70
2021/12/10 12:44:55;;;;;;;0.40;0.20;;;4.50;99.90;;;;;;5093413;28;20419;-71
2021/12/10 12:47:32;;;;;;;0.40;0.20;;;4.60;99.90;;;;;;5111966;28;20905;-71
2021/12/10 12:50:04;;;;;;;0.40;0.30;;;4.50;99.90;;;;;;5111610;28;20707;-70
2021/12/10 12:52:54;;;;;;;0.40;0.20;;;4.60;99.90;;;;;;5108677;28;20412;-70
2021/12/10 12:55:32;;;;;;;0.40;0.30;;;4.60;99.90;;;;;;5111850;28;20400;-70
2021/12/10 12:58:10;;;;;;;0.40;0.20;;;4.60;99.90;;;;;;5111629;28;20475;-69
2021/12/10 13:01:16;;;;;;;0.40;0.20;;;4.60;99.90;;;;;;5111796;28;20380;-69
2021/12/10 13:03:59;;;;;;;0.40;0.20;;;4.70;99.90;;;;;;5094276;28;20402;-70
2021/12/10 13:06:55;;;;;;;0.40;0.20;;;4.70;99.90;;;;;;5111934;28;20408;-68
2021/12/10 13:09:26;;;;;;;0.40;0.20;;;4.70;99.90;;;;;;5111809;28;20383;-68
2021/12/10 13:12:03;;;;;;;0.40;0.20;;;4.70;99.90;;;;;;5108952;28;21637;-69
2021/12/10 13:14:45;;;;;;;0.40;0.20;;;4.70;99.90;;;;;;5109399;28;20396;-70
2021/12/10 13:17:13;;;;;;;0.40;0.20;;;4.70;99.90;;;;;;5109936;28;20392;-70
2021/12/10 13:19:40;;;;;;;0.40;0.30;;;4.70;99.90;;;;;;5111217;28;20380;-71
2021/12/10 13:22:16;;;;;;;0.40;0.20;;;4.80;99.90;;;;;;5110951;28;20391;-70
2021/12/10 13:24:44;;;;;;;0.40;0.20;;;4.80;99.90;;;;;;5111868;28;20432;-70
2021/12/10 13:27:13;;;;;;;0.40;0.20;;;4.80;99.90;;;;;;5110968;28;20499;-72
2021/12/10 13:29:39;;;;;;;0.40;0.20;;;4.80;99.90;;;;;;5111804;28;20365;-71
2021/12/10 13:32:08;;;;;;;0.40;0.30;;;4.90;99.90;;;;;;5111358;28;20379;-75
2021/12/10 13:34:34;;;;;;;0.40;0.20;;;4.90;99.90;;;;;;5092243;28;20382;-72
2021/12/10 13:37:03;;;;;;;0.40;0.20;;;4.80;99.90;;;;;;5091299;28;20400;-72
2021/12/10 13:39:30;;;;;;;0.40;0.20;;;4.80;99.90;;;;;;5089914;28;20382;-72